Time;durP1;ratioP1;P1;durP2;ratioP2;P2;SDS_P1;SDS_P2;PMS_P1;PMS_P2;Temp;Humidity;BMP_temperature;BMP_pressure;BME280_temperature;BME280_humidity;BME280_pressure;Samples;Min_cycle;Max_cycle;Signal;HPM_P1;HPM_P2
2022/02/12 00:02:05;;;;;;;;;63.67;50.33;;;;;;;;5040642;28;46199;-79
2022/02/12 00:04:30;;;;;;;;;65.33;52.67;;;;;;;;5059900;28;45363;-81
2022/02/12 00:06:55;;;;;;;;;67.33;51.33;;;;;;;;5059196;28;45210;-80
2022/02/12 00:09:21;;;;;;;;;59.33;48.67;;;;;;;;5059530;28;45371;-81
2022/02/12 00:11:46;;;;;;;;;60.33;49.00;;;;;;;;5058580;28;45686;-80
2022/02/12 00:14:11;;;;;;;;;49.00;37.33;;;;;;;;5060051;28;45390;-79
2022/02/12 00:16:37;;;;;;;;;61.33;50.33;;;;;;;;5060687;28;45319;-78
2022/02/12 00:19:02;;;;;;;;;64.67;50.67;;;;;;;;5058619;28;45234;-78
2022/02/12 00:21:27;;;;;;;;;57.00;45.00;;;;;;;;5059841;28;46635;-77
2022/02/12 00:23:52;;;;;;;;;66.33;52.00;;;;;;;;5058362;28;45375;-80
2022/02/12 00:26:20;;;;;;;;;63.67;50.33;;;;;;;;5058229;28;45403;-80
2022/02/12 00:28:45;;;;;;;;;63.67;51.00;;;;;;;;5058455;28;45370;-79
2022/02/12 00:31:10;;;;;;;;;57.00;46.50;;;;;;;;5039674;28;46097;-80
2022/02/12 00:33:35;;;;;;;;;65.33;52.67;;;;;;;;5060654;28;45468;-80
2022/02/12 00:36:00;;;;;;;;;56.33;47.00;;;;;;;;5058822;28;45398;-80
2022/02/12 00:38:26;;;;;;;;;62.67;47.67;;;;;;;;5059016;28;45461;-80
2022/02/12 00:40:51;;;;;;;;;59.33;45.00;;;;;;;;5059024;28;46323;-81
2022/02/12 00:43:16;;;;;;;;;59.67;48.33;;;;;;;;5057136;28;45363;-80
2022/02/12 00:45:41;;;;;;;;;59.33;46.67;;;;;;;;5058202;28;45362;-80
2022/02/12 00:48:06;;;;;;;;;55.00;44.75;;;;;;;;5060860;28;45434;-78
2022/02/12 00:50:32;;;;;;;;;52.33;45.00;;;;;;;;5061407;28;46852;-79
2022/02/12 00:52:57;;;;;;;;;58.50;48.25;;;;;;;;5058617;28;45309;-79
2022/02/12 00:55:22;;;;;;;;;51.25;39.75;;;;;;;;5058898;28;45334;-79
2022/02/12 00:57:48;;;;;;;;;53.00;43.50;;;;;;;;5057616;28;45547;-79
2022/02/12 01:00:13;;;;;;;;;49.25;40.25;;;;;;;;5057695;28;45627;-79
2022/02/12 01:02:38;;;;;;;;;51.00;42.50;;;;;;;;5057751;28;45357;-80
2022/02/12 01:05:04;;;;;;;;;51.25;42.75;;;;;;;;5058242;28;45326;-79
2022/02/12 01:07:29;;;;;;;;;44.75;37.75;;;;;;;;5058199;28;45300;-80
2022/02/12 01:09:54;;;;;;;;;51.00;40.50;;;;;;;;5057677;28;47184;-79
2022/02/12 01:12:19;;;;;;;;;50.25;40.75;;;;;;;;5061763;28;45411;-80
2022/02/12 01:14:45;;;;;;;;;53.75;43.75;;;;;;;;5057875;28;45260;-80
2022/02/12 01:17:10;;;;;;;;;45.75;37.25;;;;;;;;5058273;28;45205;-79
2022/02/12 01:19:35;;;;;;;;;42.00;36.50;;;;;;;;5057452;28;46246;-80
2022/02/12 01:22:01;;;;;;;;;51.75;41.00;;;;;;;;5058527;28;45450;-79
2022/02/12 01:24:26;;;;;;;;;44.75;38.75;;;;;;;;5057382;28;45405;-79
2022/02/12 01:26:51;;;;;;;;;42.75;37.25;;;;;;;;5058029;28;45428;-80
2022/02/12 01:29:16;;;;;;;;;42.25;38.00;;;;;;;;5057652;28;46014;-79
2022/02/12 01:31:42;;;;;;;;;41.00;36.25;;;;;;;;5058425;28;45470;-80
2022/02/12 01:34:07;;;;;;;;;30.00;28.00;;;;;;;;5039809;28;45356;-79
2022/02/12 01:36:32;;;;;;;;;24.75;21.50;;;;;;;;5057824;28;45191;-79
2022/02/12 01:38:57;;;;;;;;;22.75;20.50;;;;;;;;5057045;28;46362;-79
2022/02/12 01:41:22;;;;;;;;;28.75;24.00;;;;;;;;5057482;28;45676;-79
2022/02/12 01:43:47;;;;;;;;;13.25;10.50;;;;;;;;5057018;28;45351;-79
2022/02/12 01:46:13;;;;;;;;;36.50;29.25;;;;;;;;5056006;28;45413;-80
2022/02/12 01:48:41;;;;;;;;;32.25;28.00;;;;;;;;5056655;28;45347;-80
2022/02/12 01:51:07;;;;;;;;;22.50;21.00;;;;;;;;5056606;28;45335;-79
2022/02/12 01:53:32;;;;;;;;;25.75;23.25;;;;;;;;5056474;28;45361;-79
2022/02/12 01:55:58;;;;;;;;;19.75;19.25;;;;;;;;5059467;28;45451;-79
2022/02/12 01:58:23;;;;;;;;;25.00;22.75;;;;;;;;5057249;28;46231;-79
2022/02/12 02:00:49;;;;;;;;;21.25;21.25;;;;;;;;5056869;28;45469;-79
2022/02/12 02:03:14;;;;;;;;;33.75;30.50;;;;;;;;5057699;28;45498;-78
2022/02/12 02:05:39;;;;;;;;;39.75;35.00;;;;;;;;5060527;28;45627;-78
2022/02/12 02:08:05;;;;;;;;;36.75;34.25;;;;;;;;5058383;28;45339;-80
2022/02/12 02:10:30;;;;;;;;;27.75;27.75;;;;;;;;5058290;28;45371;-79
2022/02/12 02:12:55;;;;;;;;;39.00;34.00;;;;;;;;5058418;28;46412;-79
2022/02/12 02:15:20;;;;;;;;;32.75;27.50;;;;;;;;5057740;28;45535;-78
2022/02/12 02:17:46;;;;;;;;;34.00;32.25;;;;;;;;5056733;28;47270;-78
2022/02/12 02:20:11;;;;;;;;;32.25;29.25;;;;;;;;5056808;28;45423;-78
2022/02/12 02:22:56;;;;;;;;;31.50;26.00;;;;;;;;5056255;28;45280;-79
2022/02/12 02:25:22;;;;;;;;;20.75;20.75;;;;;;;;5054526;28;45443;-79
2022/02/12 02:27:48;;;;;;;;;23.25;21.75;;;;;;;;5058329;28;46443;-79
2022/02/12 02:30:17;;;;;;;;;20.75;19.50;;;;;;;;5056745;28;45322;-79
2022/02/12 02:32:42;;;;;;;;;16.50;15.25;;;;;;;;5057195;28;45489;-79
2022/02/12 02:35:08;;;;;;;;;18.50;16.00;;;;;;;;5056138;28;45287;-79
2022/02/12 02:37:33;;;;;;;;;19.50;17.25;;;;;;;;5055984;28;46961;-79
2022/02/12 02:39:58;;;;;;;;;17.25;16.25;;;;;;;;5055212;28;45328;-79
2022/02/12 02:42:23;;;;;;;;;17.25;14.25;;;;;;;;5055875;28;45618;-79
2022/02/12 02:44:49;;;;;;;;;17.50;13.25;;;;;;;;5055352;28;45504;-79
2022/02/12 02:47:33;;;;;;;;;15.00;14.50;;;;;;;;5056751;28;46892;-78
2022/02/12 02:49:59;;;;;;;;;17.00;13.50;;;;;;;;5059259;28;45355;-79
2022/02/12 02:57:51;;;;;;;;;18.25;16.75;;;;;;;;5053310;28;45343;-79
2022/02/12 03:00:17;;;;;;;;;16.75;14.75;;;;;;;;5055847;28;45300;-78
2022/02/12 03:02:43;;;;;;;;;15.50;15.50;;;;;;;;5056890;28;45471;-79
2022/02/12 03:05:08;;;;;;;;;19.25;17.00;;;;;;;;5050718;28;45330;-79
2022/02/12 03:07:33;;;;;;;;;26.00;17.25;;;;;;;;5069502;28;46364;-78
2022/02/12 03:10:08;;;;;;;;;22.75;19.25;;;;;;;;5072781;28;45359;-78
2022/02/12 03:12:34;;;;;;;;;19.75;16.25;;;;;;;;5062311;28;45528;-79
2022/02/12 03:14:59;;;;;;;;;15.00;12.75;;;;;;;;5062328;28;45374;-78
2022/02/12 03:17:24;;;;;;;;;19.50;16.25;;;;;;;;5063352;28;45487;-79
2022/02/12 03:19:49;;;;;;;;;18.00;16.00;;;;;;;;5062050;28;45409;-78
2022/02/12 03:22:15;;;;;;;;;16.75;15.00;;;;;;;;5061114;28;45351;-79
2022/02/12 03:24:40;;;;;;;;;18.25;15.50;;;;;;;;5061067;28;45295;-78
2022/02/12 03:27:07;;;;;;;;;17.00;12.25;;;;;;;;5060566;28;47295;-78
2022/02/12 03:29:32;;;;;;;;;14.50;11.75;;;;;;;;5060326;28;45407;-78
2022/02/12 03:31:58;;;;;;;;;16.75;15.75;;;;;;;;5043671;28;45496;-78
2022/02/12 03:34:23;;;;;;;;;14.00;14.00;;;;;;;;5060930;28;45363;-78
2022/02/12 03:36:48;;;;;;;;;20.50;14.25;;;;;;;;5063400;28;45640;-78
2022/02/12 03:39:13;;;;;;;;;15.75;14.75;;;;;;;;5061780;28;45399;-78
2022/02/12 03:41:39;;;;;;;;;14.50;13.00;;;;;;;;5060658;27;45271;-79
2022/02/12 03:44:04;;;;;;;;;16.25;13.25;;;;;;;;5061372;28;45458;-79
2022/02/12 03:46:29;;;;;;;;;15.75;13.25;;;;;;;;5059953;28;46888;-79
2022/02/12 03:48:54;;;;;;;;;16.25;13.50;;;;;;;;5059092;28;45467;-79
2022/02/12 03:51:21;;;;;;;;;22.50;18.50;;;;;;;;5040581;28;45805;-78
2022/02/12 03:53:47;;;;;;;;;21.25;17.50;;;;;;;;5060266;28;45335;-78
2022/02/12 03:56:13;;;;;;;;;29.75;22.50;;;;;;;;5040908;28;46866;-79
2022/02/12 03:58:39;;;;;;;;;25.25;22.75;;;;;;;;5058922;28;45589;-78
2022/02/12 04:01:04;;;;;;;;;26.00;22.25;;;;;;;;5058997;28;45432;-78
2022/02/12 04:03:29;;;;;;;;;21.25;20.75;;;;;;;;5057786;28;47317;-78
2022/02/12 04:05:54;;;;;;;;;24.50;21.50;;;;;;;;5057834;28;46181;-79
2022/02/12 04:08:21;;;;;;;;;22.50;22.50;;;;;;;;5057883;28;45508;-79
2022/02/12 04:10:47;;;;;;;;;22.50;21.25;;;;;;;;5058912;28;45592;-78
2022/02/12 04:13:12;;;;;;;;;27.00;21.50;;;;;;;;5058038;28;45403;-79
2022/02/12 04:15:38;;;;;;;;;22.75;21.75;;;;;;;;5058905;27;46791;-78
2022/02/12 04:18:03;;;;;;;;;23.50;22.75;;;;;;;;5057793;28;45541;-78
2022/02/12 04:20:28;;;;;;;;;26.00;23.25;;;;;;;;5058785;28;45338;-79
2022/02/12 04:22:54;;;;;;;;;33.25;28.25;;;;;;;;5059107;28;45387;-79
2022/02/12 04:25:20;;;;;;;;;28.50;22.50;;;;;;;;5057970;28;45949;-78
2022/02/12 04:27:45;;;;;;;;;28.75;27.00;;;;;;;;5060251;28;45641;-79
2022/02/12 04:30:11;;;;;;;;;28.25;23.50;;;;;;;;5059961;28;45489;-78
2022/02/12 04:32:36;;;;;;;;;27.75;25.75;;;;;;;;5058289;28;45434;-78
2022/02/12 04:35:02;;;;;;;;;13.75;9.75;;;;;;;;5059190;28;46144;-78
2022/02/12 04:37:28;;;;;;;;;39.50;31.75;;;;;;;;5057759;28;45429;-79
2022/02/12 04:39:54;;;;;;;;;31.00;27.25;;;;;;;;5056741;28;45369;-79
2022/02/12 04:42:19;;;;;;;;;30.75;28.25;;;;;;;;5063017;28;45501;-79
2022/02/12 04:44:45;;;;;;;;;29.00;25.50;;;;;;;;5058341;28;46335;-79
2022/02/12 04:47:10;;;;;;;;;33.75;29.75;;;;;;;;5057412;28;45386;-79
2022/02/12 04:49:36;;;;;;;;;29.50;27.25;;;;;;;;5057444;28;45310;-79
2022/02/12 04:52:02;;;;;;;;;34.25;27.75;;;;;;;;5056487;28;45367;-79
2022/02/12 04:54:27;;;;;;;;;29.00;26.75;;;;;;;;5057059;28;46516;-79
2022/02/12 04:56:53;;;;;;;;;35.50;30.75;;;;;;;;5057095;28;45255;-79
2022/02/12 04:59:18;;;;;;;;;33.00;28.25;;;;;;;;5057375;28;45435;-79
2022/02/12 05:01:43;;;;;;;;;31.00;29.50;;;;;;;;5057034;28;45285;-78
2022/02/12 05:04:10;;;;;;;;;38.00;35.50;;;;;;;;5056195;28;46094;-78
2022/02/12 05:06:35;;;;;;;;;28.50;24.50;;;;;;;;5058484;28;45472;-78
2022/02/12 05:09:00;;;;;;;;;41.75;31.75;;;;;;;;5056592;28;45379;-78
2022/02/12 05:11:26;;;;;;;;;36.25;31.50;;;;;;;;5058548;28;45292;-79
2022/02/12 05:13:52;;;;;;;;;30.25;27.75;;;;;;;;5056769;28;46126;-78
2022/02/12 05:16:18;;;;;;;;;38.75;33.25;;;;;;;;5055737;28;45484;-79
2022/02/12 05:18:43;;;;;;;;;37.75;30.75;;;;;;;;5057171;28;45444;-79
2022/02/12 05:21:08;;;;;;;;;37.75;32.00;;;;;;;;5057709;28;45462;-79
2022/02/12 05:23:33;;;;;;;;;31.00;29.75;;;;;;;;5056927;28;46196;-80
2022/02/12 05:25:58;;;;;;;;;36.25;34.00;;;;;;;;5057954;28;45959;-79
2022/02/12 05:28:23;;;;;;;;;40.25;35.00;;;;;;;;5058869;28;45575;-78
2022/02/12 05:30:49;;;;;;;;;35.50;32.25;;;;;;;;5057604;28;45391;-80
2022/02/12 05:33:14;;;;;;;;;34.50;31.50;;;;;;;;5039334;28;46252;-79
2022/02/12 05:35:39;;;;;;;;;34.25;29.75;;;;;;;;5057996;28;45315;-79
2022/02/12 05:38:04;;;;;;;;;34.25;33.25;;;;;;;;5056726;28;45331;-79
2022/02/12 05:40:30;;;;;;;;;30.50;29.50;;;;;;;;5057761;28;45628;-79
2022/02/12 05:42:55;;;;;;;;;28.50;26.50;;;;;;;;5056857;28;47088;-79
2022/02/12 05:45:20;;;;;;;;;40.25;35.00;;;;;;;;5039725;28;45382;-79
2022/02/12 05:47:45;;;;;;;;;30.50;28.25;;;;;;;;5040421;28;45624;-78
2022/02/12 05:50:11;;;;;;;;;31.25;29.50;;;;;;;;5057771;28;45560;-79
2022/02/12 05:52:36;;;;;;;;;30.00;28.00;;;;;;;;5059684;28;45374;-77
2022/02/12 05:55:02;;;;;;;;;37.25;33.50;;;;;;;;5060060;28;45280;-77
2022/02/12 05:57:27;;;;;;;;;32.75;29.50;;;;;;;;5061830;28;45612;-78
2022/02/12 05:59:53;;;;;;;;;31.00;30.50;;;;;;;;5063481;28;45689;-79
2022/02/12 06:02:18;;;;;;;;;33.25;26.00;;;;;;;;5061305;28;45499;-76
2022/02/12 06:04:43;;;;;;;;;33.50;33.50;;;;;;;;5062551;28;45556;-79
2022/02/12 06:07:10;;;;;;;;;42.25;29.75;;;;;;;;5060237;28;45411;-78
2022/02/12 06:09:35;;;;;;;;;25.75;23.25;;;;;;;;5057023;28;45579;-78
2022/02/12 06:12:00;;;;;;;;;30.25;28.50;;;;;;;;5040382;28;48914;-78
2022/02/12 06:14:25;;;;;;;;;32.00;28.50;;;;;;;;5039552;28;45416;-79
2022/02/12 06:16:54;;;;;;;;;37.75;35.75;;;;;;;;5056715;28;45494;-78
2022/02/12 06:19:19;;;;;;;;;42.50;37.75;;;;;;;;5061343;28;45589;-79
2022/02/12 06:21:44;;;;;;;;;39.75;35.00;;;;;;;;5066803;28;47255;-79
2022/02/12 06:24:10;;;;;;;;;37.25;32.25;;;;;;;;5055443;28;45423;-78
2022/02/12 06:26:38;;;;;;;;;34.25;29.00;;;;;;;;5055513;28;45408;-80
2022/02/12 06:29:03;;;;;;;;;42.50;36.50;;;;;;;;5058462;28;45587;-81
2022/02/12 06:31:28;;;;;;;;;56.50;42.25;;;;;;;;5063293;28;46308;-80
2022/02/12 06:33:54;;;;;;;;;41.25;37.25;;;;;;;;5061756;28;45261;-81
2022/02/12 06:36:19;;;;;;;;;42.50;32.00;;;;;;;;5060083;28;45405;-81
2022/02/12 06:38:44;;;;;;;;;36.50;34.25;;;;;;;;5055738;28;45404;-79
2022/02/12 06:41:09;;;;;;;;;34.25;32.25;;;;;;;;5059193;28;46133;-81
2022/02/12 06:43:34;;;;;;;;;32.50;31.25;;;;;;;;5059258;28;45230;-80
2022/02/12 06:45:59;;;;;;;;;44.25;38.75;;;;;;;;5058997;28;45344;-80
2022/02/12 06:48:25;;;;;;;;;45.00;36.50;;;;;;;;5040761;28;45489;-81
2022/02/12 06:50:50;;;;;;;;;44.00;38.25;;;;;;;;5058813;28;45369;-79
2022/02/12 06:53:15;;;;;;;;;47.50;38.50;;;;;;;;5041807;28;45362;-80
2022/02/12 06:55:41;;;;;;;;;39.50;32.25;;;;;;;;5059097;28;45693;-81
2022/02/12 06:58:06;;;;;;;;;49.00;33.25;;;;;;;;5058041;28;45323;-80
2022/02/12 07:00:31;;;;;;;;;36.75;34.00;;;;;;;;5058294;28;47053;-81
2022/02/12 07:02:57;;;;;;;;;33.75;29.75;;;;;;;;5058821;28;45430;-80
2022/02/12 07:05:22;;;;;;;;;32.75;29.00;;;;;;;;5060324;28;45287;-80
2022/02/12 07:07:48;;;;;;;;;29.50;26.00;;;;;;;;5058447;28;45313;-80
2022/02/12 07:10:14;;;;;;;;;30.50;27.50;;;;;;;;5057762;28;46089;-80
2022/02/12 07:12:39;;;;;;;;;34.75;30.75;;;;;;;;5058235;28;45320;-80
2022/02/12 07:15:05;;;;;;;;;37.00;29.50;;;;;;;;5062660;28;45365;-80
2022/02/12 07:17:30;;;;;;;;;32.25;31.25;;;;;;;;5065574;28;45336;-80
2022/02/12 07:19:55;;;;;;;;;38.25;30.50;;;;;;;;5058516;28;46818;-80
2022/02/12 07:22:26;;;;;;;;;39.50;35.00;;;;;;;;5058427;28;45318;-80
2022/02/12 07:24:51;;;;;;;;;35.50;32.50;;;;;;;;5055799;28;45466;-79
2022/02/12 07:27:16;;;;;;;;;43.00;37.00;;;;;;;;5058018;28;45628;-80
2022/02/12 07:29:41;;;;;;;;;40.50;36.50;;;;;;;;5057889;28;46967;-81
2022/02/12 07:32:07;;;;;;;;;36.50;31.75;;;;;;;;5061510;28;45444;-81
2022/02/12 07:34:32;;;;;;;;;31.50;30.00;;;;;;;;5060084;28;45477;-80
2022/02/12 07:36:57;;;;;;;;;33.50;30.50;;;;;;;;5058485;28;45364;-81
2022/02/12 07:39:23;;;;;;;;;36.25;32.00;;;;;;;;5058261;28;46899;-80
2022/02/12 07:41:48;;;;;;;;;37.75;30.50;;;;;;;;5059191;28;45283;-80
2022/02/12 07:44:13;;;;;;;;;38.50;35.75;;;;;;;;5058096;28;45502;-77
2022/02/12 07:46:38;;;;;;;;;40.25;34.25;;;;;;;;5059709;27;45315;-78
2022/02/12 07:49:04;;;;;;;;;39.25;34.00;;;;;;;;5057141;28;46040;-78
2022/02/12 07:51:29;;;;;;;;;29.25;25.75;;;;;;;;5057331;28;46131;-77
2022/02/12 07:53:54;;;;;;;;;32.25;31.25;;;;;;;;5057747;28;45382;-76
2022/02/12 07:56:19;;;;;;;;;22.00;20.50;;;;;;;;5057165;28;45410;-78
2022/02/12 07:58:45;;;;;;;;;28.50;28.50;;;;;;;;5057512;28;45379;-77
2022/02/12 08:01:11;;;;;;;;;29.75;24.00;;;;;;;;5056178;28;45332;-78
2022/02/12 08:03:36;;;;;;;;;31.75;27.25;;;;;;;;5057260;28;45426;-79
2022/02/12 08:06:01;;;;;;;;;30.75;29.50;;;;;;;;5057054;28;45589;-78
2022/02/12 08:08:26;;;;;;;;;28.25;26.75;;;;;;;;5056697;28;46004;-80
2022/02/12 08:13:35;;;;;;;;;26.25;24.00;;;;;;;;5057399;28;45226;-80
2022/02/12 08:16:01;;;;;;;;;21.25;20.25;;;;;;;;5056331;28;45307;-79
2022/02/12 08:18:26;;;;;;;;;25.50;24.00;;;;;;;;5036062;28;45546;-79
2022/02/12 08:20:51;;;;;;;;;17.00;10.75;;;;;;;;5051451;28;45517;-79
2022/02/12 08:23:17;;;;;;;;;35.50;26.00;;;;;;;;5060986;28;45228;-78
2022/02/12 08:25:42;;;;;;;;;23.75;21.25;;;;;;;;5058909;27;45414;-77
2022/02/12 08:28:08;;;;;;;;;35.00;28.75;;;;;;;;5056337;28;45733;-81
2022/02/12 08:30:33;;;;;;;;;27.00;25.00;;;;;;;;5038766;28;45511;-79
2022/02/12 08:32:58;;;;;;;;;21.50;20.00;;;;;;;;5057233;28;45435;-81
2022/02/12 08:35:23;;;;;;;;;28.25;26.50;;;;;;;;5059411;28;45427;-81
2022/02/12 08:37:48;;;;;;;;;27.00;25.25;;;;;;;;5057940;28;45439;-81
2022/02/12 08:40:18;;;;;;;;;23.00;20.75;;;;;;;;5056865;28;45323;-81
2022/02/12 08:42:44;;;;;;;;;24.50;22.75;;;;;;;;5057850;28;45559;-80
2022/02/12 08:45:10;;;;;;;;;14.25;12.75;;;;;;;;5058392;28;45265;-81
2022/02/12 08:47:36;;;;;;;;;14.50;14.25;;;;;;;;5056449;28;46944;-81
2022/02/12 08:50:01;;;;;;;;;20.50;12.50;;;;;;;;5056868;28;45571;-81
2022/02/12 08:52:28;;;;;;;;;11.00;10.00;;;;;;;;5057482;28;45542;-81
2022/02/12 08:54:54;;;;;;;;;16.50;13.00;;;;;;;;5060481;28;45447;-80
2022/02/12 08:57:19;;;;;;;;;11.75;11.75;;;;;;;;5059061;28;45270;-81
2022/02/12 08:59:44;;;;;;;;;11.00;11.00;;;;;;;;5058807;28;45593;-81
2022/02/12 09:02:09;;;;;;;;;11.50;10.75;;;;;;;;5057517;28;45359;-81
2022/02/12 09:04:35;;;;;;;;;13.25;10.75;;;;;;;;5060005;28;45470;-80
2022/02/12 09:07:00;;;;;;;;;11.75;8.25;;;;;;;;5057433;28;45724;-80
2022/02/12 09:09:27;;;;;;;;;12.25;12.25;;;;;;;;5059584;28;45479;-82
2022/02/12 09:11:52;;;;;;;;;11.75;6.50;;;;;;;;5060266;28;45661;-80
2022/02/12 09:14:17;;;;;;;;;15.25;12.75;;;;;;;;5056231;28;45429;-81
2022/02/12 09:16:43;;;;;;;;;11.00;11.00;;;;;;;;5058722;28;46117;-81
2022/02/12 09:19:08;;;;;;;;;13.25;12.00;;;;;;;;5056116;28;45678;-81
2022/02/12 09:21:34;;;;;;;;;11.75;10.25;;;;;;;;5056175;28;45386;-80
2022/02/12 09:23:59;;;;;;;;;15.75;15.25;;;;;;;;5056523;28;45477;-81
2022/02/12 09:26:30;;;;;;;;;15.50;12.75;;;;;;;;5056503;28;46013;-81
2022/02/12 09:28:55;;;;;;;;;15.00;12.00;;;;;;;;5060588;28;45255;-81
2022/02/12 09:31:20;;;;;;;;;13.00;13.00;;;;;;;;5059121;27;45621;-81
2022/02/12 09:33:45;;;;;;;;;12.00;9.50;;;;;;;;5056419;28;45366;-80
2022/02/12 09:36:11;;;;;;;;;12.75;11.00;;;;;;;;5056201;28;46256;-81
2022/02/12 09:38:36;;;;;;;;;13.00;11.50;;;;;;;;5057969;27;45382;-80
2022/02/12 09:41:01;;;;;;;;;17.00;12.00;;;;;;;;5036929;28;45365;-75
2022/02/12 09:43:28;;;;;;;;;11.00;11.00;;;;;;;;5063003;28;45269;-88
2022/02/12 09:46:24;;;;;;;;;12.00;12.00;;;;;;;;5055749;28;46130;-80
2022/02/12 09:48:50;;;;;;;;;13.50;12.00;;;;;;;;5056202;28;45355;-77
2022/02/12 09:51:17;;;;;;;;;10.50;8.25;;;;;;;;5054710;28;45434;-82
2022/02/12 09:53:42;;;;;;;;;16.25;14.25;;;;;;;;5054245;28;45518;-81
2022/02/12 09:56:07;;;;;;;;;12.50;12.00;;;;;;;;5054295;28;47031;-81
2022/02/12 09:58:32;;;;;;;;;14.50;13.75;;;;;;;;5019340;28;45439;-81
2022/02/12 10:00:57;;;;;;;;;13.75;12.75;;;;;;;;5054020;28;45403;-80
2022/02/12 10:03:23;;;;;;;;;10.50;10.50;;;;;;;;5055835;28;45512;-86
2022/02/12 10:05:53;;;;;;;;;14.75;8.75;;;;;;;;5053749;28;45457;-81
2022/02/12 10:08:18;;;;;;;;;7.25;7.25;;;;;;;;5053977;28;45443;-80
2022/02/12 10:10:45;;;;;;;;;14.75;11.50;;;;;;;;5058038;28;45357;-87
2022/02/12 10:13:19;;;;;;;;;16.00;13.50;;;;;;;;5057490;28;45385;-76
2022/02/12 10:15:48;;;;;;;;;10.25;8.25;;;;;;;;5054556;28;47401;-82
2022/02/12 10:18:14;;;;;;;;;10.25;5.00;;;;;;;;5055913;28;45386;-83
2022/02/12 10:20:40;;;;;;;;;12.50;9.25;;;;;;;;5056652;28;45344;-80
2022/02/12 10:23:05;;;;;;;;;11.00;9.75;;;;;;;;5061677;28;45598;-84
2022/02/12 10:25:31;;;;;;;;;9.50;9.50;;;;;;;;5064519;28;45458;-83
2022/02/12 10:27:56;;;;;;;;;11.25;9.50;;;;;;;;5051213;28;45427;-84
2022/02/12 10:30:25;;;;;;;;;8.00;8.00;;;;;;;;5064448;28;44782;-83
2022/02/12 10:32:53;;;;;;;;;7.00;7.00;;;;;;;;5057678;28;45640;-77
2022/02/12 10:35:18;;;;;;;;;8.00;6.50;;;;;;;;5057782;28;45552;-84
2022/02/12 10:37:45;;;;;;;;;18.25;18.25;;;;;;;;5037289;28;45660;-85
2022/02/12 10:40:10;;;;;;;;;10.00;9.75;;;;;;;;4997225;28;1199015;-80
2022/02/12 10:42:43;;;;;;;;;10.25;10.25;;;;;;;;5038764;28;45418;-77
2022/02/12 10:45:11;;;;;;;;;13.00;9.00;;;;;;;;5037903;28;46151;-79
2022/02/12 10:47:37;;;;;;;;;9.25;9.25;;;;;;;;5040355;28;45487;-87
2022/02/12 10:50:03;;;;;;;;;12.25;9.75;;;;;;;;5038439;28;45431;-80
2022/02/12 10:52:38;;;;;;;;;7.75;6.50;;;;;;;;5036642;28;45285;-81
2022/02/12 10:55:04;;;;;;;;;7.25;7.25;;;;;;;;5034590;28;46406;-82
2022/02/12 10:57:36;;;;;;;;;10.50;9.50;;;;;;;;5037626;28;45317;-80
2022/02/12 11:00:02;;;;;;;;;7.25;7.25;;;;;;;;5037561;28;45493;-82
2022/02/12 11:02:28;;;;;;;;;10.00;9.00;;;;;;;;5037795;28;45338;-80
2022/02/12 11:04:57;;;;;;;;;13.00;7.50;;;;;;;;5037005;28;47000;-82
2022/02/12 11:07:23;;;;;;;;;8.50;8.50;;;;;;;;5035735;28;45226;-87
2022/02/12 11:09:48;;;;;;;;;10.00;10.00;;;;;;;;5039006;28;45647;-86
2022/02/12 11:12:15;;;;;;;;;11.50;11.50;;;;;;;;5040275;28;45281;-85
2022/02/12 11:14:44;;;;;;;;;18.25;14.00;;;;;;;;5039448;28;45391;-90
2022/02/12 11:17:14;;;;;;;;;9.50;7.75;;;;;;;;5041012;28;45356;-90
2022/02/12 11:19:40;;;;;;;;;6.75;5.50;;;;;;;;5022881;28;46953;-83
2022/02/12 11:22:08;;;;;;;;;6.75;6.75;;;;;;;;5033541;28;45325;-82
2022/02/12 11:24:35;;;;;;;;;5.75;5.75;;;;;;;;5036296;28;46439;-82
2022/02/12 11:27:13;;;;;;;;;9.00;7.50;;;;;;;;5040428;28;45324;-84
2022/02/12 11:29:40;;;;;;;;;8.50;8.25;;;;;;;;5040454;28;45278;-90
2022/02/12 11:32:12;;;;;;;;;9.25;8.00;;;;;;;;5045763;28;45376;-86
2022/02/12 11:35:03;;;;;;;;;5.75;5.25;;;;;;;;5039493;28;47254;-83
2022/02/12 11:37:33;;;;;;;;;8.25;8.25;;;;;;;;5038896;28;45396;-89
2022/02/12 11:40:14;;;;;;;;;7.00;7.00;;;;;;;;5058205;28;45295;-89
2022/02/12 11:42:43;;;;;;;;;13.75;12.25;;;;;;;;5059048;28;45627;-89
2022/02/12 11:45:15;;;;;;;;;9.25;6.50;;;;;;;;5063345;28;46115;-89
2022/02/12 11:48:00;;;;;;;;;15.00;10.00;;;;;;;;5061809;28;45765;-88
2022/02/12 11:50:39;;;;;;;;;13.25;9.50;;;;;;;;5067530;28;44930;-88
2022/02/12 11:53:05;;;;;;;;;9.75;9.75;;;;;;;;5071661;28;44835;-90
2022/02/12 11:55:38;;;;;;;;;11.25;10.25;;;;;;;;5070742;28;45690;-90
2022/02/12 11:58:04;;;;;;;;;10.75;10.75;;;;;;;;5063915;28;45491;-91
2022/02/12 12:00:33;;;;;;;;;7.50;7.00;;;;;;;;5063320;28;45801;-79
2022/02/12 12:03:05;;;;;;;;;9.50;8.75;;;;;;;;5065938;28;45441;-90
2022/02/12 12:05:30;;;;;;;;;6.50;6.50;;;;;;;;5059907;28;46265;-90
2022/02/12 12:07:58;;;;;;;;;11.00;9.75;;;;;;;;5060742;28;45476;-89
2022/02/12 12:10:24;;;;;;;;;8.50;7.50;;;;;;;;5058037;28;45465;-82
2022/02/12 12:12:49;;;;;;;;;7.75;7.25;;;;;;;;5053571;28;45522;-81
2022/02/12 12:15:16;;;;;;;;;9.50;8.50;;;;;;;;5055807;28;45470;-81
2022/02/12 12:17:41;;;;;;;;;7.25;5.25;;;;;;;;5056854;27;45853;-82
2022/02/12 12:20:07;;;;;;;;;13.75;10.75;;;;;;;;5057358;28;45395;-83
2022/02/12 12:22:32;;;;;;;;;8.00;6.50;;;;;;;;5057613;28;45714;-85
2022/02/12 12:24:57;;;;;;;;;11.00;7.00;;;;;;;;5058667;28;45874;-81
2022/02/12 12:27:23;;;;;;;;;7.50;7.50;;;;;;;;5056200;28;45284;-80
2022/02/12 12:32:34;;;;;;;;;4.00;4.00;;;;;;;;5056448;28;45645;-79
2022/02/12 12:35:05;;;;;;;;;7.00;6.00;;;;;;;;5055483;28;46357;-81
2022/02/12 12:37:34;;;;;;;;;10.00;7.75;;;;;;;;5054463;28;45319;-85
2022/02/12 12:40:00;;;;;;;;;9.50;8.00;;;;;;;;5055103;28;45426;-77
2022/02/12 12:42:26;;;;;;;;;5.00;5.00;;;;;;;;5055422;28;45369;-79
2022/02/12 12:45:06;;;;;;;;;8.50;5.75;;;;;;;;5055334;28;46512;-78
2022/02/12 12:47:31;;;;;;;;;12.00;10.25;;;;;;;;5055337;28;45664;-79
2022/02/12 12:49:58;;;;;;;;;8.50;8.50;;;;;;;;5055225;28;45476;-78
2022/02/12 12:52:26;;;;;;;;;5.50;5.50;;;;;;;;5054436;28;45335;-79
2022/02/12 12:54:55;;;;;;;;;4.00;1.00;;;;;;;;5052011;28;46233;-79
2022/02/12 12:57:25;;;;;;;;;8.50;7.75;;;;;;;;5054729;28;49579;-79
2022/02/12 12:59:52;;;;;;;;;6.50;6.50;;;;;;;;5055106;28;45473;-80
2022/02/12 13:02:17;;;;;;;;;6.50;6.50;;;;;;;;5055815;28;45333;-76
2022/02/12 13:04:47;;;;;;;;;6.25;6.25;;;;;;;;5057417;28;46711;-73
2022/02/12 13:07:17;;;;;;;;;7.00;5.25;;;;;;;;5054310;28;45266;-81
2022/02/12 13:09:43;;;;;;;;;6.25;5.25;;;;;;;;5055777;28;45533;-78
2022/02/12 13:12:26;;;;;;;;;7.50;6.75;;;;;;;;5055629;28;45416;-77
2022/02/12 13:14:52;;;;;;;;;6.00;6.00;;;;;;;;5054716;28;47124;-77
2022/02/12 13:17:18;;;;;;;;;9.50;8.25;;;;;;;;5055501;28;45543;-81
2022/02/12 13:19:44;;;;;;;;;6.00;5.75;;;;;;;;5055677;28;45292;-78
2022/02/12 13:22:12;;;;;;;;;9.75;8.75;;;;;;;;5054624;28;45355;-80
2022/02/12 13:24:38;;;;;;;;;4.00;4.00;;;;;;;;5056725;28;47101;-79
2022/02/12 13:27:04;;;;;;;;;9.25;6.00;;;;;;;;5054573;28;45565;-79
2022/02/12 13:29:29;;;;;;;;;4.00;4.00;;;;;;;;5055928;28;45594;-80
2022/02/12 13:31:57;;;;;;;;;6.50;6.25;;;;;;;;5055197;28;45583;-81
2022/02/12 13:34:26;;;;;;;;;6.75;5.25;;;;;;;;5054235;28;46409;-81
2022/02/12 13:36:51;;;;;;;;;7.25;5.00;;;;;;;;5038798;28;45327;-82
2022/02/12 13:39:17;;;;;;;;;5.00;4.25;;;;;;;;5051852;28;45777;-79
2022/02/12 13:41:43;;;;;;;;;7.75;7.75;;;;;;;;5054662;28;45445;-75
2022/02/12 13:44:08;;;;;;;;;15.25;12.50;;;;;;;;5054089;28;47082;-76
2022/02/12 13:46:38;;;;;;;;;6.00;6.00;;;;;;;;5054775;28;45336;-77
2022/02/12 13:49:13;;;;;;;;;14.00;14.00;;;;;;;;5053331;28;45316;-78
2022/02/12 13:51:48;;;;;;;;;7.50;5.00;;;;;;;;5055824;28;45341;-77
2022/02/12 13:54:13;;;;;;;;;7.50;5.00;;;;;;;;5054200;28;45571;-78
2022/02/12 13:56:39;;;;;;;;;6.75;6.50;;;;;;;;5053575;28;45485;-76
2022/02/12 13:59:04;;;;;;;;;6.00;4.75;;;;;;;;5053952;28;45391;-77
2022/02/12 14:01:29;;;;;;;;;5.00;5.00;;;;;;;;5054601;28;45393;-78
2022/02/12 14:03:54;;;;;;;;;7.00;6.00;;;;;;;;5053217;28;46228;-74
2022/02/12 14:06:19;;;;;;;;;6.25;5.75;;;;;;;;5053932;28;45447;-77
2022/02/12 14:08:45;;;;;;;;;8.00;6.00;;;;;;;;5054557;28;45486;-75
2022/02/12 14:11:11;;;;;;;;;7.00;6.00;;;;;;;;5054364;28;45368;-76
2022/02/12 14:13:36;;;;;;;;;4.00;4.00;;;;;;;;5051984;28;47076;-80
2022/02/12 14:16:01;;;;;;;;;6.50;5.00;;;;;;;;5035425;28;45890;-74
2022/02/12 14:18:27;;;;;;;;;7.00;7.00;;;;;;;;5053176;28;45255;-75
2022/02/12 14:20:52;;;;;;;;;8.75;6.25;;;;;;;;5054445;28;45339;-75
2022/02/12 14:23:20;;;;;;;;;8.00;6.00;;;;;;;;5053766;28;45563;-83
2022/02/12 14:25:47;;;;;;;;;7.75;7.75;;;;;;;;5057111;28;45568;-88
2022/02/12 14:28:13;;;;;;;;;5.00;5.00;;;;;;;;5037735;28;45351;-77
2022/02/12 14:30:39;;;;;;;;;7.50;5.50;;;;;;;;5054728;28;45509;-82